Hlavní strana
METAR-TAF:

METAR-TAF

Letiště :

N'Djamena, Čad

zeměpisná šířka: 12-08N, zeměpisná délka: 015-02E, výška: 295 m

Aktuální stav počasí

Zpráva byla vytvořena před 1 hodinou a 20 minutami, v 21:00 UTC
Severní vítr 8 kt
Teplota 27°C
Vlhkost vzduchu 21%
Tlak 1009 hPa
Viditelnost 10 km a více
Žádná oblačnost pod 1500 m, nevyskytují se cumulonimby.

METAR: FTTJ 132100Z 35008KT CAVOK 27/03 Q1009 NOSIG

Čas: 23:20 (22:20 UTC)

Předpověď počasí

Zpráva byla vytvořena před 5 hodinami a 20 minutami, v 17:00 UTC
Předpověď platná od 13 v 18 UTC do 14 v 24 UTC
vítr z různých směrů 4 kt
Viditelnost: 6000 m
Dočasný
od 14 v 02 UTC do 14 v 06 UTC
Viditelnost: 4000 m
rozsáhlý prach
Dočasný
od 14 v 07 UTC do 14 v 14 UTC
Severovýchodní vítr 12 kt
Viditelnost 10 km a více
Žádná oblačnost pod 1500 m, nevyskytují se cumulonimby.

TAF: FTTJ 131700Z 1318/1424 VRB04KT 6000 NSC TEMPO 1402/1406 4000 DU TEMPO 1407/1414 04012KT CAVOK

Stav a předpovědi počasí z více než 4 000 letišť (zprávy METAR a TAF).

Červené a žluté tečky na mapě představují dostupné meteorologické stanice.

Když kurzor umístíte na tečku, zobrazí se název stanice.

Pak kliknutím zobrazíte stav a předpověď počasí.

Chcete-li změnit mapu, kliknutím na zelené tlačítko se znaménkem +mapu přiblížíte, kliknutím na zelené tlačítko se znaménkem – mapu oddálíte a kliknutím na zelené šipky přejdete na sousední mapy.


METAR-TAF: